createdAt,value
2018-10-18T00:00:46.585Z,97927.55
2018-10-18T00:03:16.322Z,97921.27
2018-10-18T00:05:46.316Z,97925.00
2018-10-18T00:08:16.375Z,97916.69
2018-10-18T00:10:46.111Z,97917.53
2018-10-18T00:13:17.248Z,97911.25
2018-10-18T00:15:52.019Z,97912.78
2018-10-18T00:18:21.492Z,97907.34
2018-10-18T00:20:51.133Z,97905.66
2018-10-18T00:23:20.783Z,97908.91
2018-10-18T00:25:50.400Z,97908.06
2018-10-18T00:28:21.081Z,97911.77
2018-10-18T00:30:50.955Z,97916.35
2018-10-18T00:33:20.847Z,97916.35
2018-10-18T00:35:51.264Z,97907.86
2018-10-18T00:38:21.412Z,97914.66
2018-10-18T00:40:51.127Z,97910.41
2018-10-18T00:43:21.270Z,97912.28
2018-10-18T00:45:51.063Z,97918.56
2018-10-18T00:48:20.681Z,97922.81
2018-10-18T00:50:50.180Z,97917.72
2018-10-18T00:53:19.805Z,97917.38
2018-10-18T00:55:49.567Z,97914.32
2018-10-18T00:58:19.307Z,97918.91
2018-10-18T01:00:49.300Z,97922.17
2018-10-18T01:03:19.578Z,97930.83
2018-10-18T01:05:49.222Z,97934.90
2018-10-18T01:08:18.847Z,97928.62
2018-10-18T01:10:48.981Z,97937.78
2018-10-18T01:13:18.542Z,97932.36
2018-10-18T01:15:48.163Z,97923.87
2018-10-18T01:18:17.684Z,97933.38
2018-10-18T01:20:47.470Z,97942.03
2018-10-18T01:23:17.492Z,97939.48
2018-10-18T01:25:48.085Z,97939.48
2018-10-18T01:28:19.319Z,97944.92
2018-10-18T01:30:48.977Z,97945.43
2018-10-18T01:33:18.483Z,97943.73
2018-10-18T01:35:48.231Z,97944.23
2018-10-18T01:38:18.455Z,97949.67
2018-10-18T01:40:48.060Z,97953.75
2018-10-18T01:43:18.031Z,97950.19
2018-10-18T01:45:47.774Z,97955.61
2018-10-18T01:48:17.299Z,97947.97
2018-10-18T01:50:46.861Z,97956.13
2018-10-18T01:53:16.348Z,97955.81
2018-10-18T01:55:45.826Z,97952.25
2018-10-18T01:58:15.435Z,97955.48
2018-10-18T02:00:45.120Z,97951.41
2018-10-18T02:03:14.984Z,97956.84
2018-10-18T02:05:45.196Z,97959.55
2018-10-18T02:08:15.069Z,97957.34
2018-10-18T02:10:44.700Z,97959.21
2018-10-18T02:13:14.884Z,97955.98
2018-10-18T02:15:44.576Z,97957.86
2018-10-18T02:18:15.515Z,97962.78
2018-10-18T02:20:45.221Z,97967.87
2018-10-18T02:23:15.154Z,97966.51
2018-10-18T02:25:44.924Z,97977.88
2018-10-18T02:28:14.739Z,97974.15
2018-10-18T02:30:44.625Z,97969.73
2018-10-18T02:33:15.477Z,97968.38
2018-10-18T02:35:45.096Z,97972.96
2018-10-18T02:38:14.660Z,97975.16
2018-10-18T02:40:44.668Z,97978.39
2018-10-18T02:43:14.490Z,97976.52
2018-10-18T02:45:44.775Z,97975.67
2018-10-18T02:48:14.617Z,97979.41
2018-10-18T02:50:44.239Z,97978.05
2018-10-18T02:53:14.523Z,97973.64
2018-10-18T02:56:46.708Z,97974.48
2018-10-18T02:59:16.565Z,97981.78
2018-10-18T03:01:47.136Z,97975.50
2018-10-18T03:04:16.816Z,97988.91
2018-10-18T03:06:47.049Z,97984.50
2018-10-18T03:09:16.949Z,97989.08
2018-10-18T03:11:46.904Z,97986.37
2018-10-18T03:14:16.916Z,97980.59
2018-10-18T03:16:46.580Z,97983.66
2018-10-18T03:19:16.240Z,97983.66
2018-10-18T03:21:46.059Z,97984.16
2018-10-18T03:24:15.987Z,97987.22
2018-10-18T03:26:46.089Z,97996.04
2018-10-18T03:29:15.829Z,97991.45
2018-10-18T03:31:45.347Z,97992.48
2018-10-18T03:34:14.859Z,97998.59
2018-10-18T03:36:46.020Z,97995.53
2018-10-18T03:39:15.808Z,98000.97
2018-10-18T03:41:45.468Z,98000.97
2018-10-18T03:44:15.096Z,97993.84
2018-10-18T03:46:45.751Z,97999.27
2018-10-18T03:49:15.340Z,97998.95
2018-10-18T03:51:44.952Z,98000.62
2018-10-18T03:54:14.602Z,98005.55
2018-10-18T03:56:44.335Z,98003.03
2018-10-18T03:59:14.009Z,98006.25
2018-10-18T04:01:44.087Z,98010.13
2018-10-18T04:04:13.873Z,98010.13
2018-10-18T04:06:43.504Z,98007.41
2018-10-18T04:09:13.222Z,98009.82
2018-10-18T04:11:44.427Z,98011.99
2018-10-18T04:14:14.104Z,98010.84
2018-10-18T04:16:43.761Z,98000.48
2018-10-18T04:19:14.269Z,98005.91
2018-10-18T04:21:43.865Z,98007.27
2018-10-18T04:24:13.671Z,98012.20
2018-10-18T04:26:43.900Z,98008.63
2018-10-18T04:29:13.627Z,98007.09
2018-10-18T04:31:43.476Z,98004.72
2018-10-18T04:34:13.177Z,98003.87
2018-10-18T04:36:42.882Z,98003.03
2018-10-18T04:39:13.991Z,97998.95
2018-10-18T04:41:43.684Z,97998.61
2018-10-18T04:44:13.419Z,98000.81
2018-10-18T04:46:43.507Z,97995.05
2018-10-18T04:49:13.451Z,98001.33
2018-10-18T04:51:42.976Z,97999.80
2018-10-18T04:54:12.689Z,97996.06
2018-10-18T04:56:42.343Z,98003.87
2018-10-18T04:59:12.168Z,98009.64
2018-10-18T05:01:41.820Z,98012.36
2018-10-18T05:04:12.231Z,98009.30
2018-10-18T05:06:42.323Z,98013.72
2018-10-18T05:09:11.963Z,98020.00
2018-10-18T05:11:41.735Z,98025.42
2018-10-18T05:14:12.267Z,98024.58
2018-10-18T05:16:41.916Z,98020.00
2018-10-18T05:19:11.684Z,98023.56
2018-10-18T05:21:41.451Z,98023.39
2018-10-18T05:24:11.367Z,98019.32
2018-10-18T05:26:41.137Z,98016.95
2018-10-18T05:29:10.856Z,98027.80
2018-10-18T05:31:40.633Z,98026.28
2018-10-18T05:34:10.483Z,98033.92
2018-10-18T05:36:40.850Z,98035.08
2018-10-18T05:39:13.549Z,98027.98
2018-10-18T05:41:43.213Z,98038.47
2018-10-18T05:44:13.708Z,98033.89
2018-10-18T05:46:43.194Z,98034.91
2018-10-18T05:49:12.975Z,98033.89
2018-10-18T05:51:42.545Z,98042.04
2018-10-18T05:54:12.404Z,98040.34
2018-10-18T05:56:42.552Z,98043.22
2018-10-18T05:59:12.013Z,98042.06
2018-10-18T06:01:42.029Z,98049.70
2018-10-18T06:04:12.744Z,98044.44
2018-10-18T06:06:42.644Z,98042.74
2018-10-18T06:09:14.570Z,98045.62
2018-10-18T06:11:44.394Z,98050.71
2018-10-18T06:14:13.998Z,98052.07
2018-10-18T06:16:43.504Z,98056.31
2018-10-18T06:19:13.071Z,98053.77
2018-10-18T06:21:42.531Z,98055.97
2018-10-18T06:24:12.400Z,98061.09
2018-10-18T06:26:42.088Z,98061.77
2018-10-18T06:29:12.185Z,98069.56
2018-10-18T06:31:43.484Z,98075.84
2018-10-18T06:34:13.058Z,98077.71
2018-10-18T06:36:42.655Z,98075.00
2018-10-18T06:39:13.617Z,98081.45
2018-10-18T06:41:43.276Z,98078.22
2018-10-18T06:44:13.045Z,98077.71
2018-10-18T06:46:42.981Z,98078.55
2018-10-18T06:49:13.281Z,98082.10
2018-10-18T06:51:42.628Z,98078.88
2018-10-18T06:54:12.161Z,98076.66
2018-10-18T06:56:41.693Z,98086.16
2018-10-18T06:59:11.488Z,98092.45
2018-10-18T07:01:41.360Z,98086.85
2018-10-18T07:04:10.843Z,98083.46
2018-10-18T07:06:40.327Z,98079.38
2018-10-18T07:09:11.475Z,98084.31
2018-10-18T07:11:40.948Z,98083.80
2018-10-18T07:14:10.878Z,98080.06
2018-10-18T07:16:40.537Z,98085.84
2018-10-18T07:19:10.276Z,98091.08
2018-10-18T07:21:39.818Z,98093.28
2018-10-18T07:24:10.198Z,98091.92
2018-10-18T07:26:39.699Z,98082.76
2018-10-18T07:29:10.268Z,98084.12
2018-10-18T07:31:39.957Z,98086.33
2018-10-18T07:34:10.084Z,98086.33
2018-10-18T07:36:40.044Z,98089.89
2018-10-18T07:39:13.184Z,98094.30
2018-10-18T07:41:43.072Z,98097.53
2018-10-18T07:44:13.049Z,98099.23
2018-10-18T07:46:46.458Z,98101.95
2018-10-18T07:49:16.343Z,98103.14
2018-10-18T07:51:45.791Z,98110.78
2018-10-18T07:54:15.392Z,98111.97
2018-10-18T07:56:44.771Z,98119.27
2018-10-18T07:59:14.213Z,98112.48
2018-10-18T08:01:43.867Z,98115.20
2018-10-18T08:04:13.999Z,98113.33
2018-10-18T08:06:43.644Z,98115.03
2018-10-18T08:09:14.436Z,98117.75
2018-10-18T08:11:43.895Z,98119.92
2018-10-18T08:14:13.482Z,98125.72
2018-10-18T08:16:43.913Z,98124.87
2018-10-18T08:19:15.557Z,98121.47
2018-10-18T08:21:45.619Z,98130.98
2018-10-18T08:24:15.363Z,98134.20
2018-10-18T08:26:45.340Z,98138.27
2018-10-18T08:29:15.557Z,98142.86
2018-10-18T08:31:45.403Z,98146.93
2018-10-18T08:34:15.317Z,98146.25
2018-10-18T08:36:44.876Z,98149.47
2018-10-18T08:39:15.105Z,98149.66
2018-10-18T08:41:44.598Z,98148.65
2018-10-18T08:44:14.504Z,98150.17
2018-10-18T08:46:44.008Z,98153.91
2018-10-18T08:49:14.159Z,98160.53
2018-10-18T08:51:44.357Z,98158.32
2018-10-18T08:54:14.724Z,98162.91
2018-10-18T08:56:44.465Z,98161.20
2018-10-18T08:59:14.081Z,98163.23
2018-10-18T09:01:43.763Z,98162.89
2018-10-18T09:04:14.130Z,98164.25
2018-10-18T09:06:45.527Z,98167.81
2018-10-18T09:09:16.335Z,98170.53
2018-10-18T09:11:46.728Z,98171.55
2018-10-18T09:14:17.077Z,98173.92
2018-10-18T09:16:47.645Z,98170.19
2018-10-18T09:19:18.467Z,98172.73
2018-10-18T09:21:48.992Z,98168.16
2018-10-18T09:24:19.130Z,98168.67
2018-10-18T09:26:49.444Z,98176.65
2018-10-18T09:29:20.088Z,98167.31
2018-10-18T09:31:50.103Z,98171.22
2018-10-18T09:34:23.983Z,98177.50
2018-10-18T09:36:54.911Z,98181.06
2018-10-18T09:39:24.595Z,98180.56
2018-10-18T09:41:54.182Z,98179.20
2018-10-18T09:44:24.484Z,98182.06
2018-10-18T09:46:55.385Z,98181.05
2018-10-18T09:49:26.687Z,98185.30
2018-10-18T09:51:58.608Z,98188.02
2018-10-18T09:54:28.870Z,98189.55
2018-10-18T09:56:58.925Z,98194.64
2018-10-18T09:59:29.283Z,98195.49
2018-10-18T10:02:04.891Z,98199.75
2018-10-18T10:04:34.663Z,98196.52
2018-10-18T10:07:04.341Z,98197.52
2018-10-18T10:09:35.440Z,98198.38
2018-10-18T10:12:05.078Z,98195.48
2018-10-18T10:14:35.188Z,98198.55
2018-10-18T10:17:06.455Z,98202.12
2018-10-18T10:19:36.577Z,98196.04
2018-10-18T10:22:06.144Z,98191.45
2018-10-18T10:24:36.015Z,98190.41
2018-10-18T10:27:05.653Z,98191.09
2018-10-18T10:29:35.088Z,98192.47
2018-10-18T10:32:06.027Z,98191.80
2018-10-18T10:34:35.871Z,98188.53
2018-10-18T10:37:05.795Z,98192.09
2018-10-18T10:39:35.755Z,98185.48
2018-10-18T10:42:09.977Z,98183.95
2018-10-18T10:44:39.708Z,98182.43
2018-10-18T10:47:11.359Z,98188.19
2018-10-18T10:49:41.848Z,98181.40
2018-10-18T10:52:13.277Z,98187.83
2018-10-18T10:54:43.135Z,98184.29
2018-10-18T10:57:12.974Z,98182.22
2018-10-18T10:59:43.523Z,98173.90
2018-10-18T11:02:13.205Z,98178.83
2018-10-18T11:04:42.884Z,98178.49
2018-10-18T11:07:13.018Z,98178.83
2018-10-18T11:09:44.828Z,98175.61
2018-10-18T11:12:22.010Z,98176.59
2018-10-18T11:14:52.810Z,98175.07
2018-10-18T11:17:22.692Z,98179.83
2018-10-18T11:19:53.809Z,98176.09
2018-10-18T11:22:24.283Z,98176.94
2018-10-18T11:24:56.307Z,98186.94
2018-10-18T11:27:26.165Z,98181.50
2018-10-18T11:29:57.196Z,98180.48
2018-10-18T11:32:27.108Z,98177.59
2018-10-18T11:34:56.818Z,98174.70
2018-10-18T11:37:27.471Z,98181.67
2018-10-18T11:39:57.109Z,98182.52
2018-10-18T11:42:27.419Z,98181.47
2018-10-18T11:44:58.475Z,98178.58
2018-10-18T11:47:29.358Z,98179.77
2018-10-18T11:50:00.994Z,98179.27
2018-10-18T11:52:31.385Z,98177.39
2018-10-18T11:55:02.103Z,98175.52
2018-10-18T11:57:32.650Z,98172.81
2018-10-18T12:00:04.185Z,98169.23
2018-10-18T12:02:34.029Z,98174.50
2018-10-18T12:05:04.255Z,98171.41
2018-10-18T12:07:35.194Z,98172.27
2018-10-18T12:10:06.137Z,98167.16
2018-10-18T12:12:36.627Z,98168.02
2018-10-18T12:15:09.182Z,98165.63
2018-10-18T12:17:40.030Z,98168.86
2018-10-18T12:20:12.996Z,98171.24
2018-10-18T12:22:42.887Z,98165.13
2018-10-18T12:25:13.392Z,98158.97
2018-10-18T12:27:43.476Z,98163.05
2018-10-18T12:30:15.475Z,98159.48
2018-10-18T12:32:46.339Z,98163.05
2018-10-18T12:35:18.439Z,98163.25
2018-10-18T12:37:48.960Z,98163.77
2018-10-18T12:40:19.693Z,98162.54
2018-10-18T12:42:52.281Z,98162.70
2018-10-18T12:45:22.107Z,98162.88
2018-10-18T12:47:53.792Z,98157.09
2018-10-18T12:50:23.875Z,98159.81
2018-10-18T12:52:54.608Z,98156.59
2018-10-18T12:55:25.409Z,98154.38
2018-10-18T12:57:56.892Z,98158.97
2018-10-18T13:00:27.096Z,98160.33
2018-10-18T13:02:57.627Z,98164.41
2018-10-18T13:05:28.990Z,98163.56
2018-10-18T13:07:59.945Z,98167.13
2018-10-18T13:10:30.203Z,98166.78
2018-10-18T13:13:07.204Z,98166.41
2018-10-18T13:15:38.061Z,98171.34
2018-10-18T13:18:08.245Z,98166.92
2018-10-18T13:20:38.487Z,98168.99
2018-10-18T13:23:08.058Z,98162.50
2018-10-18T13:25:38.496Z,98169.47
2018-10-18T13:28:09.007Z,98164.03
2018-10-18T13:30:38.791Z,98165.56
2018-10-18T13:33:09.163Z,98169.50
2018-10-18T13:35:38.987Z,98169.17
2018-10-18T13:38:09.194Z,98169.84
2018-10-18T13:40:38.881Z,98161.69
2018-10-18T13:43:09.508Z,98159.27
2018-10-18T13:45:39.336Z,98163.69
2018-10-18T13:48:09.055Z,98164.41
2018-10-18T13:50:38.771Z,98165.39
2018-10-18T13:53:08.267Z,98162.84
2018-10-18T13:55:37.704Z,98165.05
2018-10-18T13:58:07.882Z,98166.58
2018-10-18T14:00:38.476Z,98159.13
2018-10-18T14:03:08.212Z,98167.30
2018-10-18T14:05:38.577Z,98163.72
2018-10-18T14:08:08.538Z,98162.03
2018-10-18T14:10:39.351Z,98162.03
2018-10-18T14:13:09.586Z,98157.61
2018-10-18T14:15:47.322Z,98154.55
2018-10-18T14:18:24.090Z,98151.83
2018-10-18T14:20:54.465Z,98150.98
2018-10-18T14:23:25.189Z,98153.19
2018-10-18T14:25:57.277Z,98141.97
2018-10-18T14:28:27.296Z,98148.25
2018-10-18T14:31:00.500Z,98150.98
2018-10-18T14:33:31.799Z,98149.28
2018-10-18T14:36:02.416Z,98149.66
2018-10-18T14:38:33.938Z,98150.67
2018-10-18T14:41:19.391Z,98147.61
2018-10-18T14:43:51.041Z,98146.25
2018-10-18T14:46:21.224Z,98150.84
2018-10-18T14:48:51.104Z,98143.03
2018-10-18T14:51:21.484Z,98146.12
2018-10-18T14:53:51.307Z,98146.12
2018-10-18T14:56:21.693Z,98146.94
2018-10-18T14:58:51.363Z,98137.80
2018-10-18T15:01:21.252Z,98140.68
2018-10-18T15:03:51.098Z,98141.70
2018-10-18T15:06:20.735Z,98146.80
2018-10-18T15:08:50.552Z,98146.97
2018-10-18T15:11:20.694Z,98143.61
2018-10-18T15:13:50.396Z,98146.16
2018-10-18T15:16:21.175Z,98145.98
2018-10-18T15:18:51.164Z,98137.28
2018-10-18T15:21:21.705Z,98140.89
2018-10-18T15:23:52.521Z,98142.75
2018-10-18T15:26:23.958Z,98145.61
2018-10-18T15:28:54.444Z,98141.36
2018-10-18T15:31:24.128Z,98140.34
2018-10-18T15:33:54.463Z,98147.82
2018-10-18T15:36:24.791Z,98149.52
2018-10-18T15:38:54.887Z,98149.18
2018-10-18T15:41:24.804Z,98153.09
2018-10-18T15:43:54.783Z,98154.59
2018-10-18T15:46:24.547Z,98153.91
2018-10-18T15:48:54.810Z,98147.45
2018-10-18T15:51:24.527Z,98148.63
2018-10-18T15:53:54.705Z,98156.97
2018-10-18T15:56:24.470Z,98149.78
2018-10-18T15:58:54.817Z,98153.70
2018-10-18T16:01:24.727Z,98156.92
2018-10-18T16:03:54.374Z,98159.27
2018-10-18T16:06:24.431Z,98160.12
2018-10-18T16:08:55.217Z,98158.78
2018-10-18T16:11:25.406Z,98159.64
2018-10-18T16:13:57.886Z,98158.62
2018-10-18T16:16:30.219Z,98163.55
2018-10-18T16:19:00.011Z,98163.38
2018-10-18T16:21:30.235Z,98159.30
2018-10-18T16:24:00.062Z,98168.44
2018-10-18T16:26:29.668Z,98164.53
2018-10-18T16:28:59.489Z,98172.52
2018-10-18T16:31:29.228Z,98165.88
2018-10-18T16:33:59.110Z,98175.75
2018-10-18T16:36:30.316Z,98170.13
2018-10-18T16:39:00.463Z,98180.30
2018-10-18T16:41:30.554Z,98180.30
2018-10-18T16:44:00.917Z,98180.98
2018-10-18T16:46:30.944Z,98180.81
2018-10-18T16:49:00.724Z,98185.23
2018-10-18T16:51:31.184Z,98182.16
2018-10-18T16:54:00.928Z,98180.29
2018-10-18T16:56:31.128Z,98186.04
2018-10-18T16:59:00.986Z,98186.37
2018-10-18T17:01:31.204Z,98184.33
2018-10-18T17:04:01.063Z,98177.87
2018-10-18T17:06:32.036Z,98180.58
2018-10-18T17:09:08.864Z,98185.17
2018-10-18T17:11:39.016Z,98183.98
2018-10-18T17:14:08.943Z,98187.39
2018-10-18T17:16:38.905Z,98187.18
2018-10-18T17:19:09.084Z,98189.91
2018-10-18T17:21:40.144Z,98191.09
2018-10-18T17:24:10.904Z,98194.14
2018-10-18T17:26:40.977Z,98200.61
2018-10-18T17:29:10.544Z,98197.72
2018-10-18T17:31:41.331Z,98198.36
2018-10-18T17:34:11.343Z,98199.38
2018-10-18T17:36:41.579Z,98202.27
2018-10-18T17:39:11.843Z,98210.27
2018-10-18T17:41:41.312Z,98202.95
2018-10-18T17:44:11.039Z,98201.58
2018-10-18T17:46:40.774Z,98205.67
2018-10-18T17:49:10.931Z,98205.67
2018-10-18T17:51:40.548Z,98204.30
2018-10-18T17:54:11.100Z,98202.95
2018-10-18T17:56:44.272Z,98205.16
2018-10-18T17:59:14.347Z,98212.81
2018-10-18T18:01:44.302Z,98204.64
2018-10-18T18:04:14.158Z,98207.37
2018-10-18T18:06:44.191Z,98205.50
2018-10-18T18:09:13.819Z,98214.00
2018-10-18T18:11:43.867Z,98214.34
2018-10-18T18:14:13.588Z,98206.98
2018-10-18T18:16:43.672Z,98214.64
2018-10-18T18:19:13.447Z,98211.62
2018-10-18T18:21:44.084Z,98216.34
2018-10-18T18:24:14.431Z,98212.77
2018-10-18T18:26:45.567Z,98212.77
2018-10-18T18:29:14.256Z,98218.55
2018-10-18T18:31:44.434Z,98218.55
2018-10-18T18:34:14.168Z,98218.55
2018-10-18T18:36:44.767Z,98214.98
2018-10-18T18:39:14.396Z,98224.00
2018-10-18T18:41:44.256Z,98221.28
2018-10-18T18:44:14.354Z,98223.16
2018-10-18T18:46:44.570Z,98225.36
2018-10-18T18:49:14.474Z,98224.00
2018-10-18T18:51:44.504Z,98229.45
2018-10-18T18:54:14.462Z,98230.81
2018-10-18T18:56:44.038Z,98227.06
2018-10-18T18:59:14.153Z,98229.78
2018-10-18T19:01:44.354Z,98231.66
2018-10-18T19:04:15.265Z,98234.38
2018-10-18T19:06:45.936Z,98243.06
2018-10-18T19:09:15.615Z,98247.48
2018-10-18T19:11:45.287Z,98245.78
2018-10-18T19:14:17.081Z,98252.59
2018-10-18T19:16:47.291Z,98254.63
2018-10-18T19:19:16.919Z,98253.95
2018-10-18T19:21:46.668Z,98258.89
2018-10-18T19:24:16.422Z,98256.17
2018-10-18T19:26:46.208Z,98258.89
2018-10-18T19:29:15.952Z,98258.89
2018-10-18T19:31:46.110Z,98257.19
2018-10-18T19:34:15.773Z,98268.08
2018-10-18T19:36:45.721Z,98267.23
2018-10-18T19:39:15.279Z,98270.30
2018-10-18T19:41:46.480Z,98270.33
2018-10-18T19:44:16.444Z,98276.97
2018-10-18T19:46:46.682Z,98272.34
2018-10-18T19:49:16.523Z,98279.83
2018-10-18T19:51:46.763Z,98277.95
2018-10-18T19:54:16.734Z,98275.39
2018-10-18T19:56:47.456Z,98278.45
2018-10-18T19:59:19.609Z,98274.71
2018-10-18T20:01:49.759Z,98280.50
2018-10-18T20:04:19.922Z,98280.30
2018-10-18T20:06:49.887Z,98285.23
2018-10-18T20:09:20.329Z,98283.86
2018-10-18T20:11:50.214Z,98285.23
2018-10-18T20:14:19.915Z,98282.33
2018-10-18T20:16:50.115Z,98281.82
2018-10-18T20:19:20.767Z,98280.45
2018-10-18T20:21:51.004Z,98290.50
2018-10-18T20:24:21.523Z,98287.44
2018-10-18T20:26:51.743Z,98293.05
2018-10-18T20:29:22.011Z,98288.66
2018-10-18T20:31:52.387Z,98291.70
2018-10-18T20:34:22.297Z,98294.63
2018-10-18T20:36:54.767Z,98289.69
2018-10-18T20:39:25.020Z,98294.76
2018-10-18T20:41:56.296Z,98288.45
2018-10-18T20:44:27.402Z,98291.52
2018-10-18T20:46:57.382Z,98288.16
2018-10-18T20:49:27.933Z,98286.11
2018-10-18T20:51:59.191Z,98295.98
2018-10-18T20:54:31.246Z,98293.95
2018-10-18T20:57:04.066Z,98286.80
2018-10-18T20:59:34.193Z,98288.16
2018-10-18T21:02:03.665Z,98287.82
2018-10-18T21:04:33.750Z,98288.33
2018-10-18T21:07:04.091Z,98286.29
2018-10-18T21:09:34.239Z,98286.63
2018-10-18T21:12:04.144Z,98282.03
2018-10-18T21:14:34.892Z,98281.19
2018-10-18T21:17:05.597Z,98291.23
2018-10-18T21:19:36.619Z,98287.66
2018-10-18T21:22:06.785Z,98289.22
2018-10-18T21:24:36.490Z,98282.24
2018-10-18T21:27:06.713Z,98275.95
2018-10-18T21:29:39.406Z,98276.45
2018-10-18T21:32:11.679Z,98280.55
2018-10-18T21:34:41.482Z,98274.42
2018-10-18T21:37:12.085Z,98279.86
2018-10-18T21:39:48.650Z,98269.14
2018-10-18T21:42:18.644Z,98274.08
2018-10-18T21:44:48.795Z,98271.87
2018-10-18T21:47:20.199Z,98273.95
2018-10-18T21:49:50.344Z,98270.71
2018-10-18T21:52:21.723Z,98276.67
2018-10-18T21:54:51.700Z,98273.61
2018-10-18T21:57:21.496Z,98276.84
2018-10-18T21:59:51.576Z,98271.56
2018-10-18T22:02:21.429Z,98273.78
2018-10-18T22:05:17.818Z,98276.16
2018-10-18T22:08:06.009Z,98270.37
2018-10-18T22:10:36.467Z,98274.45
2018-10-18T22:13:06.549Z,98272.76
2018-10-18T22:15:36.458Z,98267.35
2018-10-18T22:18:07.086Z,98266.33
2018-10-18T22:20:37.200Z,98263.27
2018-10-18T22:23:08.308Z,98264.80
2018-10-18T22:25:38.535Z,98259.53
2018-10-18T22:28:08.185Z,98258.37
2018-10-18T22:30:37.935Z,98261.60
2018-10-18T22:33:07.605Z,98263.30
2018-10-18T22:35:37.763Z,98256.16
2018-10-18T22:38:07.647Z,98258.20
2018-10-18T22:40:37.546Z,98253.47
2018-10-18T22:43:07.881Z,98256.70
2018-10-18T22:45:37.532Z,98261.30
2018-10-18T22:48:07.210Z,98250.58
2018-10-18T22:50:37.455Z,98247.69
2018-10-18T22:53:07.540Z,98246.33
2018-10-18T22:55:37.180Z,98242.59
2018-10-18T22:58:07.261Z,98239.36
2018-10-18T23:00:36.956Z,98246.02
2018-10-18T23:03:06.823Z,98247.38
2018-10-18T23:05:36.770Z,98245.85
2018-10-18T23:08:06.525Z,98245.52
2018-10-18T23:10:36.377Z,98249.59
2018-10-18T23:13:06.576Z,98249.90
2018-10-18T23:15:36.300Z,98244.66
2018-10-18T23:18:07.299Z,98242.95
2018-10-18T23:20:37.108Z,98239.05
2018-10-18T23:23:06.768Z,98238.53
2018-10-18T23:25:36.344Z,98246.36
2018-10-18T23:28:06.342Z,98245.51
2018-10-18T23:30:37.252Z,98242.61
2018-10-18T23:33:07.278Z,98248.56
2018-10-18T23:35:37.009Z,98247.37
2018-10-18T23:38:06.754Z,98246.73
2018-10-18T23:40:37.036Z,98247.41
2018-10-18T23:43:06.881Z,98247.41
2018-10-18T23:45:37.078Z,98243.83
2018-10-18T23:48:07.467Z,98243.66
2018-10-18T23:50:37.160Z,98240.26
2018-10-18T23:53:06.941Z,98242.13
2018-10-18T23:55:36.491Z,98237.73
2018-10-18T23:58:06.818Z,98236.89
